Time;durP1;ratioP1;P1;durP2;ratioP2;P2;SDS_P1;SDS_P2;PMS_P1;PMS_P2;Temp;Humidity;BMP_temperature;BMP_pressure;BME280_temperature;BME280_humidity;BME280_pressure;Samples;Min_cycle;Max_cycle;Signal;HPM_P1;HPM_P2
2024/02/08 00:02:15;;;;;;;7.68;3.78;;;;;;;;;;5029149;28;20078;-59
2024/02/08 00:04:41;;;;;;;15.50;4.15;;;;;;;;;;5029392;28;20029;-59
2024/02/08 00:07:07;;;;;;;10.77;4.32;;;;;;;;;;5030646;28;20025;-59
2024/02/08 00:09:33;;;;;;;8.75;3.08;;;;;;;;;;5027525;28;20501;-57
2024/02/08 00:11:59;;;;;;;8.48;3.25;;;;;;;;;;5028816;28;20037;-59
2024/02/08 00:14:25;;;;;;;9.57;3.35;;;;;;;;;;5024493;28;20040;-59
2024/02/08 00:16:52;;;;;;;10.18;3.35;;;;;;;;;;5026704;28;20033;-61
2024/02/08 00:19:19;;;;;;;7.70;3.20;;;;;;;;;;5031286;28;20049;-61
2024/02/08 00:21:45;;;;;;;9.15;3.83;;;;;;;;;;5028610;28;20048;-61
2024/02/08 00:24:11;;;;;;;10.13;3.63;;;;;;;;;;5031735;28;20029;-61
2024/02/08 00:26:37;;;;;;;10.57;3.20;;;;;;;;;;5032020;28;20030;-55
2024/02/08 00:29:02;;;;;;;9.50;3.80;;;;;;;;;;5031545;28;20100;-57
2024/02/08 00:31:28;;;;;;;12.45;3.50;;;;;;;;;;5027847;28;20037;-56
2024/02/08 00:33:54;;;;;;;6.43;2.50;;;;;;;;;;5027770;28;20140;-57
2024/02/08 00:36:21;;;;;;;9.98;2.83;;;;;;;;;;5030987;28;20030;-57
2024/02/08 00:38:47;;;;;;;15.57;3.63;;;;;;;;;;5031576;28;20029;-56
2024/02/08 00:41:13;;;;;;;12.05;3.15;;;;;;;;;;5034546;28;20032;-55
2024/02/08 00:43:39;;;;;;;10.50;3.30;;;;;;;;;;5034590;28;20398;-55
2024/02/08 00:46:08;;;;;;;8.13;3.05;;;;;;;;;;5034342;28;20454;-58
2024/02/08 00:48:40;;;;;;;7.30;3.25;;;;;;;;;;5031910;28;20120;-54
2024/02/08 00:51:07;;;;;;;12.55;3.90;;;;;;;;;;5032661;28;20198;-55
2024/02/08 00:53:32;;;;;;;7.97;3.00;;;;;;;;;;5030474;28;20604;-54
2024/02/08 00:55:59;;;;;;;8.20;3.17;;;;;;;;;;5033636;28;20034;-54
2024/02/08 00:58:25;;;;;;;8.77;3.05;;;;;;;;;;5030636;28;20053;-55
2024/02/08 01:00:53;;;;;;;8.90;3.45;;;;;;;;;;5034461;28;20053;-56
2024/02/08 01:03:19;;;;;;;11.50;3.80;;;;;;;;;;5032609;28;20101;-56
2024/02/08 01:08:50;;;;;;;;;;;;;;;;;;5020405;28;20049;-56
2024/02/08 01:11:16;;;;;;;10.27;3.13;;;;;;;;;;5023093;28;19909;-56
2024/02/08 01:13:43;;;;;;;15.15;3.80;;;;;;;;;;5034523;28;20032;-54
2024/02/08 01:16:11;;;;;;;15.48;2.90;;;;;;;;;;5033697;28;20421;-55
2024/02/08 01:18:41;;;;;;;10.52;3.60;;;;;;;;;;5034608;28;20025;-54
2024/02/08 01:21:08;;;;;;;8.52;3.40;;;;;;;;;;5033898;28;20029;-56
2024/02/08 01:23:34;;;;;;;10.82;3.17;;;;;;;;;;5034781;28;20132;-57
2024/02/08 01:26:03;;;;;;;14.30;3.60;;;;;;;;;;5034548;28;20033;-60
2024/02/08 01:28:29;;;;;;;7.72;2.80;;;;;;;;;;5027730;28;20108;-59
2024/02/08 01:30:55;;;;;;;12.35;3.58;;;;;;;;;;5018990;28;20036;-59
2024/02/08 01:33:21;;;;;;;8.52;3.75;;;;;;;;;;5033613;28;20029;-59
2024/02/08 01:35:47;;;;;;;10.35;3.03;;;;;;;;;;5029775;28;20042;-59
2024/02/08 01:38:16;;;;;;;8.77;3.40;;;;;;;;;;5032890;28;20025;-58
2024/02/08 01:40:42;;;;;;;12.55;3.88;;;;;;;;;;5023876;28;20026;-59
2024/02/08 01:43:10;;;;;;;12.07;4.32;;;;;;;;;;5033861;28;20047;-59
2024/02/08 01:45:41;;;;;;;7.45;3.38;;;;;;;;;;5016386;28;20048;-59
2024/02/08 01:48:10;;;;;;;14.98;3.83;;;;;;;;;;5030331;28;20033;-58
2024/02/08 01:50:42;;;;;;;8.50;2.83;;;;;;;;;;5031641;28;20428;-59
2024/02/08 01:53:13;;;;;;;7.95;3.55;;;;;;;;;;5034019;28;20451;-59
2024/02/08 01:55:39;;;;;;;8.00;3.53;;;;;;;;;;5033325;28;20045;-58
2024/02/08 01:58:09;;;;;;;13.85;4.72;;;;;;;;;;5028794;28;20056;-59
2024/02/08 02:00:38;;;;;;;12.10;4.07;;;;;;;;;;5034184;28;20055;-59
2024/02/08 02:03:04;;;;;;;9.73;3.50;;;;;;;;;;5032580;28;20374;-59
2024/02/08 02:05:31;;;;;;;9.80;3.90;;;;;;;;;;5029941;28;20026;-59
2024/02/08 02:07:58;;;;;;;12.02;4.20;;;;;;;;;;5031815;28;20024;-59
2024/02/08 02:10:29;;;;;;;14.13;4.25;;;;;;;;;;5033360;28;20463;-58
2024/02/08 02:12:57;;;;;;;11.73;4.78;;;;;;;;;;5027654;28;20559;-58
2024/02/08 02:15:23;;;;;;;11.55;4.50;;;;;;;;;;5033082;28;20409;-58
2024/02/08 02:17:49;;;;;;;14.85;4.22;;;;;;;;;;5033293;28;20029;-59
2024/02/08 02:20:18;;;;;;;11.07;3.75;;;;;;;;;;5032461;28;20032;-58
2024/02/08 02:22:46;;;;;;;17.38;4.50;;;;;;;;;;5030525;28;20029;-57
2024/02/08 02:25:13;;;;;;;13.73;4.47;;;;;;;;;;5032207;28;20033;-58
2024/02/08 02:27:41;;;;;;;11.07;3.42;;;;;;;;;;5027803;28;20037;-58
2024/02/08 02:30:15;;;;;;;13.93;3.33;;;;;;;;;;5029113;28;20022;-59
2024/02/08 02:32:42;;;;;;;7.95;3.35;;;;;;;;;;5031609;28;20071;-59
2024/02/08 02:35:08;;;;;;;8.80;3.95;;;;;;;;;;5032621;28;20026;-59
2024/02/08 02:37:35;;;;;;;8.88;3.55;;;;;;;;;;5032087;28;20026;-61
2024/02/08 02:40:01;;;;;;;9.52;3.45;;;;;;;;;;5033481;28;20057;-60
2024/02/08 02:42:27;;;;;;;11.00;4.03;;;;;;;;;;5033022;28;20029;-60
2024/02/08 02:44:53;;;;;;;8.88;3.30;;;;;;;;;;5033328;28;20471;-61
2024/02/08 02:47:25;;;;;;;7.32;3.78;;;;;;;;;;5031771;28;20478;-61
2024/02/08 02:49:55;;;;;;;7.32;3.33;;;;;;;;;;5017621;28;20021;-58
2024/02/08 02:52:21;;;;;;;16.00;3.53;;;;;;;;;;5033028;28;20068;-60
2024/02/08 02:54:48;;;;;;;13.05;3.83;;;;;;;;;;5032380;28;20041;-60
2024/02/08 02:57:14;;;;;;;16.20;4.30;;;;;;;;;;5026546;28;20453;-60
2024/02/08 02:59:42;;;;;;;8.70;3.20;;;;;;;;;;5017948;28;20087;-60
2024/02/08 03:02:08;;;;;;;21.77;4.53;;;;;;;;;;5028894;28;21861;-60
2024/02/08 03:04:35;;;;;;;6.15;3.60;;;;;;;;;;5028421;28;20068;-60
2024/02/08 03:07:01;;;;;;;7.57;3.38;;;;;;;;;;5027530;28;20033;-60
2024/02/08 03:09:31;;;;;;;15.52;4.47;;;;;;;;;;5031859;28;20040;-61
2024/02/08 03:11:57;;;;;;;15.98;3.58;;;;;;;;;;5027853;28;20029;-60
2024/02/08 03:14:24;;;;;;;9.77;3.55;;;;;;;;;;5032706;28;20093;-61
2024/02/08 03:16:50;;;;;;;16.48;3.42;;;;;;;;;;5013982;28;20037;-60
2024/02/08 03:19:17;;;;;;;7.03;3.15;;;;;;;;;;5031685;28;20163;-59
2024/02/08 03:21:45;;;;;;;12.27;3.20;;;;;;;;;;5032163;28;20038;-60
2024/02/08 03:24:11;;;;;;;11.70;3.28;;;;;;;;;;5017338;28;20026;-61
2024/02/08 03:26:43;;;;;;;8.32;3.25;;;;;;;;;;5029631;28;20356;-61
2024/02/08 03:29:11;;;;;;;13.18;3.78;;;;;;;;;;5031013;28;20056;-60
2024/02/08 03:31:44;;;;;;;12.65;3.88;;;;;;;;;;5031648;28;20415;-61
2024/02/08 03:34:10;;;;;;;7.65;3.08;;;;;;;;;;5030777;28;20036;-61
2024/02/08 03:36:38;;;;;;;18.25;3.60;;;;;;;;;;5026947;28;20056;-57
2024/02/08 03:39:13;;;;;;;13.00;3.35;;;;;;;;;;5022946;28;20040;-60
2024/02/08 03:41:40;;;;;;;12.73;3.72;;;;;;;;;;5025590;28;20030;-61
2024/02/08 03:44:06;;;;;;;8.00;2.75;;;;;;;;;;5012203;28;20091;-59
2024/02/08 03:46:32;;;;;;;11.68;3.08;;;;;;;;;;5031415;28;20037;-59
2024/02/08 03:48:58;;;;;;;8.07;3.17;;;;;;;;;;5031443;28;20100;-59
2024/02/08 03:51:25;;;;;;;15.18;2.95;;;;;;;;;;5031771;28;20486;-59
2024/02/08 03:53:52;;;;;;;8.27;2.78;;;;;;;;;;5031260;28;20550;-59
2024/02/08 03:56:26;;;;;;;7.22;3.28;;;;;;;;;;5020847;28;20052;-59
2024/02/08 03:58:52;;;;;;;7.43;2.85;;;;;;;;;;5031659;28;20379;-59
2024/02/08 04:01:21;;;;;;;9.48;3.35;;;;;;;;;;5031712;28;20083;-59
2024/02/08 04:03:55;;;;;;;15.38;3.85;;;;;;;;;;5031382;28;20061;-59
2024/02/08 04:06:37;;;;;;;14.70;3.25;;;;;;;;;;5011284;28;20013;-59
2024/02/08 04:09:08;;;;;;;10.68;3.63;;;;;;;;;;5026901;28;20033;-59
2024/02/08 04:55:28;;;;;;;14.80;3.15;;;;;;;;;;5021786;28;20371;-59
2024/02/08 04:57:55;;;;;;;11.73;3.83;;;;;;;;;;5030089;28;20029;-61
2024/02/08 05:00:27;;;;;;;13.43;3.30;;;;;;;;;;5026692;28;20044;-60
2024/02/08 05:02:53;;;;;;;11.50;3.03;;;;;;;;;;5022266;28;20093;-57
2024/02/08 05:05:19;;;;;;;11.05;3.80;;;;;;;;;;5020903;28;20037;-61
2024/02/08 05:07:45;;;;;;;5.78;2.75;;;;;;;;;;5022893;28;20490;-59
2024/02/08 05:10:11;;;;;;;11.18;3.30;;;;;;;;;;5027952;28;20455;-59
2024/02/08 05:12:37;;;;;;;9.73;2.95;;;;;;;;;;5026266;28;20131;-59
2024/02/08 05:15:06;;;;;;;7.40;3.17;;;;;;;;;;5027160;28;20029;-59
2024/02/08 05:17:32;;;;;;;11.90;3.20;;;;;;;;;;5026703;28;20029;-59
2024/02/08 05:19:58;;;;;;;9.15;4.03;;;;;;;;;;5027938;28;20037;-59
2024/02/08 05:22:24;;;;;;;11.80;3.50;;;;;;;;;;5023168;28;20029;-59
2024/02/08 05:24:50;;;;;;;15.50;4.20;;;;;;;;;;5013248;28;20040;-59
2024/02/08 05:27:16;;;;;;;7.55;3.03;;;;;;;;;;5034705;28;20022;-59
2024/02/08 05:29:42;;;;;;;9.85;2.80;;;;;;;;;;5032959;28;20013;-59
2024/02/08 05:32:09;;;;;;;6.57;2.78;;;;;;;;;;5031278;28;20024;-59
2024/02/08 05:34:36;;;;;;;6.13;2.67;;;;;;;;;;5032554;28;20395;-59
2024/02/08 05:37:02;;;;;;;6.97;2.72;;;;;;;;;;5028415;28;20054;-58
2024/02/08 05:39:28;;;;;;;6.05;2.28;;;;;;;;;;5032914;28;20032;-59
2024/02/08 05:41:55;;;;;;;8.90;3.05;;;;;;;;;;5031376;28;20041;-60
2024/02/08 05:44:21;;;;;;;9.30;3.15;;;;;;;;;;5033503;28;20053;-59
2024/02/08 05:46:47;;;;;;;7.38;3.38;;;;;;;;;;5030779;28;20052;-59
2024/02/08 05:49:14;;;;;;;13.30;3.17;;;;;;;;;;5032500;28;20067;-59
2024/02/08 05:51:46;;;;;;;8.82;3.42;;;;;;;;;;5033512;28;20147;-59
2024/02/08 05:54:16;;;;;;;7.25;3.03;;;;;;;;;;5030874;28;20509;-59
2024/02/08 05:56:43;;;;;;;12.18;3.13;;;;;;;;;;5024704;28;20454;-59
2024/02/08 05:59:09;;;;;;;6.80;3.20;;;;;;;;;;5030447;28;20040;-59
2024/02/08 06:01:47;;;;;;;5.85;3.05;;;;;;;;;;5033080;28;20033;-59
2024/02/08 06:04:22;;;;;;;7.60;3.25;;;;;;;;;;5020670;28;20030;-59
2024/02/08 06:06:53;;;;;;;7.30;2.97;;;;;;;;;;5027266;28;20034;-59
2024/02/08 06:09:47;;;;;;;11.50;3.60;;;;;;;;;;5032913;28;20493;-60
2024/02/08 06:12:28;;;;;;;9.43;2.63;;;;;;;;;;5032910;28;20037;-60
2024/02/08 06:15:00;;;;;;;10.57;3.33;;;;;;;;;;5032645;28;20038;-60
2024/02/08 06:17:32;;;;;;;22.73;8.75;;;;;;;;;;5032840;28;20022;-59
2024/02/08 06:20:00;;;;;;;19.67;6.72;;;;;;;;;;5029503;28;20038;-60
2024/02/08 06:22:26;;;;;;;13.32;4.75;;;;;;;;;;5033235;28;20104;-59
2024/02/08 06:24:56;;;;;;;9.25;4.65;;;;;;;;;;5028392;28;20029;-59
2024/02/08 06:27:33;;;;;;;7.47;3.50;;;;;;;;;;5028183;28;20056;-60
2024/02/08 06:30:07;;;;;;;8.45;3.42;;;;;;;;;;5031605;28;20030;-60
2024/02/08 06:35:06;;;;;;;9.73;3.47;;;;;;;;;;5030542;28;20422;-59
2024/02/08 06:37:45;;;;;;;9.70;3.13;;;;;;;;;;5032568;28;20037;-59
2024/02/08 06:40:21;;;;;;;8.73;3.17;;;;;;;;;;5031830;28;20082;-58
2024/02/08 07:37:18;;;;;;;14.10;7.47;;;;;;;;;;5026405;28;20064;-59
2024/02/08 07:39:53;;;;;;;12.70;6.55;;;;;;;;;;5027108;28;21339;-59
2024/02/08 07:42:29;;;;;;;15.52;7.05;;;;;;;;;;5024840;28;20033;-59
2024/02/08 07:44:55;;;;;;;17.10;7.47;;;;;;;;;;5030225;28;20028;-59
2024/02/08 07:47:24;;;;;;;11.80;7.18;;;;;;;;;;5023048;28;20029;-60
2024/02/08 07:49:57;;;;;;;15.07;7.65;;;;;;;;;;5024894;28;20037;-57
2024/02/08 07:52:23;;;;;;;;;;;;;;;;;;5028362;28;20052;-60
2024/02/08 07:57:34;;;;;;;16.98;8.43;;;;;;;;;;5026049;28;20036;-59
2024/02/08 08:00:00;;;;;;;17.63;8.48;;;;;;;;;;5027478;28;20490;-60
2024/02/08 08:02:29;;;;;;;13.52;6.95;;;;;;;;;;5029924;28;20040;-60
2024/02/08 08:04:56;;;;;;;11.80;6.22;;;;;;;;;;5009310;28;20036;-60
2024/02/08 08:07:25;;;;;;;18.33;6.45;;;;;;;;;;5023239;28;20048;-60
2024/02/08 08:10:08;;;;;;;14.00;6.28;;;;;;;;;;5024257;28;20147;-59
2024/02/08 08:12:37;;;;;;;11.13;6.18;;;;;;;;;;5025996;28;20033;-59
2024/02/08 08:19:58;;;;;;;12.85;6.28;;;;;;;;;;5030534;28;20041;-60
2024/02/08 08:30:38;;;;;;;13.32;7.40;;;;;;;;;;5005322;28;20034;-56
2024/02/08 08:35:37;;;;;;;15.65;6.97;;;;;;;;;;5029326;28;20033;-56
2024/02/08 08:40:48;;;;;;;18.15;8.07;;;;;;;;;;5021522;28;20039;-62
2024/02/08 08:43:22;;;;;;;12.65;6.75;;;;;;;;;;5026892;28;20041;-61
2024/02/08 08:45:52;;;;;;;18.13;9.43;;;;;;;;;;5027518;28;20473;-61
2024/02/08 08:48:21;;;;;;;15.95;6.95;;;;;;;;;;5029217;28;20360;-60
2024/02/08 08:50:57;;;;;;;13.75;7.22;;;;;;;;;;5026281;28;20049;-61
2024/02/08 08:53:27;;;;;;;13.45;7.30;;;;;;;;;;5014843;28;20393;-62
2024/02/08 08:55:55;;;;;;;12.23;7.00;;;;;;;;;;5029853;28;20490;-61
2024/02/08 08:58:27;;;;;;;14.65;7.78;;;;;;;;;;5029112;28;20033;-60
2024/02/08 09:01:04;;;;;;;15.02;7.55;;;;;;;;;;5030961;28;20021;-61
2024/02/08 09:03:33;;;;;;;16.55;8.13;;;;;;;;;;5015206;28;20116;-62
2024/02/08 09:06:02;;;;;;;14.27;6.93;;;;;;;;;;5027275;28;20021;-61
2024/02/08 09:08:41;;;;;;;13.10;7.68;;;;;;;;;;5012933;28;20426;-61
2024/02/08 09:11:12;;;;;;;14.40;7.50;;;;;;;;;;5029976;28;20037;-59
2024/02/08 09:13:38;;;;;;;13.10;7.22;;;;;;;;;;5027667;28;20048;-61
2024/02/08 09:19:03;;;;;;;11.18;6.30;;;;;;;;;;5031438;28;20036;-61
2024/02/08 09:21:32;;;;;;;16.10;6.95;;;;;;;;;;5033279;28;20045;-61
2024/02/08 09:24:04;;;;;;;15.18;7.90;;;;;;;;;;5032688;28;20021;-62
2024/02/08 09:26:48;;;;;;;15.52;8.57;;;;;;;;;;5031755;28;20033;-62
2024/02/08 09:29:14;;;;;;;;;;;;;;;;;;5023513;28;20100;-62
2024/02/08 09:31:40;;;;;;;19.08;7.63;;;;;;;;;;5023500;28;19919;-61
2024/02/08 09:34:15;;;;;;;14.02;7.45;;;;;;;;;;5033428;28;20121;-60
2024/02/08 09:36:43;;;;;;;18.70;8.13;;;;;;;;;;5000226;28;20056;-56
2024/02/08 09:39:15;;;;;;;17.15;7.88;;;;;;;;;;5032664;28;20071;-57
2024/02/08 09:41:45;;;;;;;15.50;7.95;;;;;;;;;;5033334;28;20029;-56
2024/02/08 09:44:14;;;;;;;14.93;7.88;;;;;;;;;;5030649;28;20022;-57
2024/02/08 09:49:14;;;;;;;14.70;7.65;;;;;;;;;;5031552;28;20049;-59
2024/02/08 09:51:52;;;;;;;15.68;7.50;;;;;;;;;;5029997;28;20052;-59
2024/02/08 09:54:26;;;;;;;13.00;8.55;;;;;;;;;;5032103;28;20513;-59
2024/02/08 09:56:55;;;;;;;16.63;8.27;;;;;;;;;;5028847;28;20072;-59
2024/02/08 09:59:58;;;;;;;12.35;6.68;;;;;;;;;;5032387;28;20093;-59
2024/02/08 10:02:20;;;;;;;16.92;9.90;;;;;;;;;;5027377;28;20037;-59
2024/02/08 10:04:49;;;;;;;16.13;8.38;;;;;;;;;;5029639;28;20390;-59
2024/02/08 10:07:19;;;;;;;13.65;7.13;;;;;;;;;;5030919;28;20100;-59
2024/02/08 10:09:47;;;;;;;15.05;7.70;;;;;;;;;;5031618;28;20021;-60
2024/02/08 10:12:30;;;;;;;17.33;8.80;;;;;;;;;;5027997;28;20105;-60
2024/02/08 10:14:59;;;;;;;9.23;5.45;;;;;;;;;;5030809;28;20025;-59
2024/02/08 10:17:27;;;;;;;14.43;8.27;;;;;;;;;;5028085;28;20053;-59
2024/02/08 10:23:09;;;;;;;15.95;7.78;;;;;;;;;;5029150;28;20079;-58
2024/02/08 10:28:25;;;;;;;17.13;8.48;;;;;;;;;;5025284;28;20119;-60
2024/02/08 10:30:59;;;;;;;18.60;9.50;;;;;;;;;;5031570;28;20021;-59
2024/02/08 10:33:25;;;;;;;22.17;10.57;;;;;;;;;;5030709;28;20029;-59
2024/02/08 10:35:55;;;;;;;22.05;10.10;;;;;;;;;;5030490;28;20040;-59
2024/02/08 10:38:29;;;;;;;19.20;8.45;;;;;;;;;;5032085;28;20038;-60
2024/02/08 10:40:55;;;;;;;21.63;9.15;;;;;;;;;;5030589;28;20037;-59
2024/02/08 10:43:25;;;;;;;16.92;9.02;;;;;;;;;;5030898;28;20021;-60
2024/02/08 10:45:53;;;;;;;16.10;8.90;;;;;;;;;;5028104;28;20036;-59
2024/02/08 10:48:28;;;;;;;14.77;8.43;;;;;;;;;;5022514;28;20036;-56
2024/02/08 10:51:01;;;;;;;18.65;9.20;;;;;;;;;;5030449;28;20063;-56
2024/02/08 10:56:23;;;;;;;20.55;8.60;;;;;;;;;;5029652;28;20008;-60
2024/02/08 10:58:55;;;;;;;18.65;8.57;;;;;;;;;;5032116;28;20402;-60
2024/02/08 11:02:00;;;;;;;17.48;8.75;;;;;;;;;;5032079;28;20517;-60
2024/02/08 11:04:29;;;;;;;22.70;9.27;;;;;;;;;;5027330;28;20038;-60
2024/02/08 11:07:06;;;;;;;16.55;8.80;;;;;;;;;;5028559;28;20402;-60
2024/02/08 11:09:32;;;;;;;14.75;8.02;;;;;;;;;;5023207;28;20060;-60
2024/02/08 11:12:29;;;;;;;18.83;10.73;;;;;;;;;;5028892;28;20477;-60
2024/02/08 11:15:00;;;;;;;17.80;8.95;;;;;;;;;;5012335;28;20536;-60
2024/02/08 11:17:28;;;;;;;18.10;8.95;;;;;;;;;;5032184;28;20040;-60
2024/02/08 11:19:58;;;;;;;19.65;10.38;;;;;;;;;;5027712;28;20029;-60
2024/02/08 11:22:34;;;;;;;15.85;9.43;;;;;;;;;;5024295;28;20033;-60
2024/02/08 11:25:18;;;;;;;16.45;8.25;;;;;;;;;;5024211;28;20021;-60
2024/02/08 11:27:47;;;;;;;17.63;8.35;;;;;;;;;;5028609;28;20132;-60
2024/02/08 11:30:14;;;;;;;15.60;8.00;;;;;;;;;;5030658;28;20080;-60
2024/02/08 11:32:42;;;;;;;17.75;8.40;;;;;;;;;;5031834;28;20022;-60
2024/02/08 11:35:20;;;;;;;18.60;9.40;;;;;;;;;;5029600;28;20068;-60
2024/02/08 11:37:47;;;;;;;12.68;7.75;;;;;;;;;;5021846;28;20104;-60
2024/02/08 11:40:13;;;;;;;19.98;8.82;;;;;;;;;;5029126;28;20017;-60
2024/02/08 11:42:42;;;;;;;19.85;9.35;;;;;;;;;;5031674;28;20079;-60
2024/02/08 11:45:08;;;;;;;17.40;9.65;;;;;;;;;;5026224;28;20639;-60
2024/02/08 11:47:40;;;;;;;20.92;9.75;;;;;;;;;;5012079;28;20021;-60
2024/02/08 11:50:09;;;;;;;20.13;9.32;;;;;;;;;;5025330;28;20122;-60
2024/02/08 11:52:36;;;;;;;20.23;9.27;;;;;;;;;;5025897;28;20084;-61
2024/02/08 11:55:08;;;;;;;20.10;9.65;;;;;;;;;;5022213;28;20026;-60
2024/02/08 11:57:40;;;;;;;19.83;10.20;;;;;;;;;;5024988;28;20033;-60
2024/02/08 12:00:16;;;;;;;18.40;9.85;;;;;;;;;;5022911;28;20101;-59
2024/02/08 12:02:58;;;;;;;17.35;8.85;;;;;;;;;;5020020;28;20033;-61
2024/02/08 12:05:28;;;;;;;19.17;8.52;;;;;;;;;;5024984;28;20039;-61
2024/02/08 12:08:08;;;;;;;19.00;9.70;;;;;;;;;;5023285;28;20044;-60
2024/02/08 12:10:35;;;;;;;18.25;10.02;;;;;;;;;;5022097;28;20388;-60
2024/02/08 12:13:01;;;;;;;19.85;9.95;;;;;;;;;;5022490;28;20044;-60
2024/02/08 12:15:28;;;;;;;20.23;10.27;;;;;;;;;;5020798;28;20030;-60
2024/02/08 12:18:07;;;;;;;17.52;8.60;;;;;;;;;;5022996;28;20041;-60
2024/02/08 12:20:36;;;;;;;17.98;8.60;;;;;;;;;;5024539;28;20122;-60
2024/02/08 12:23:02;;;;;;;15.23;7.57;;;;;;;;;;5021987;28;20037;-59
2024/02/08 12:25:28;;;;;;;17.67;8.38;;;;;;;;;;5022027;28;20074;-60
2024/02/08 12:28:00;;;;;;;19.27;8.68;;;;;;;;;;5019822;28;20032;-60
2024/02/08 12:30:33;;;;;;;16.25;8.30;;;;;;;;;;5023527;28;20029;-59
2024/02/08 12:33:07;;;;;;;;;;;;;;;;;;5022342;28;20073;-60
2024/02/08 12:35:33;;;;;;;21.55;8.00;;;;;;;;;;5026980;28;19909;-60
2024/02/08 12:38:00;;;;;;;16.23;8.02;;;;;;;;;;5026438;28;20163;-60
2024/02/08 12:40:32;;;;;;;15.77;8.15;;;;;;;;;;5029948;28;20129;-60
2024/02/08 12:42:58;;;;;;;18.00;9.52;;;;;;;;;;5028780;28;20163;-60
2024/02/08 12:45:28;;;;;;;25.08;9.50;;;;;;;;;;5028240;28;20026;-60
2024/02/08 12:47:54;;;;;;;21.10;8.10;;;;;;;;;;5029015;28;20096;-60
2024/02/08 12:50:21;;;;;;;17.02;8.02;;;;;;;;;;5028653;28;20167;-60
2024/02/08 12:52:47;;;;;;;18.30;9.15;;;;;;;;;;5028644;28;20107;-60
2024/02/08 12:55:19;;;;;;;22.50;10.25;;;;;;;;;;5027371;28;20096;-60
2024/02/08 12:57:55;;;;;;;22.70;9.05;;;;;;;;;;5031127;28;20143;-60
2024/02/08 13:00:21;;;;;;;21.20;8.95;;;;;;;;;;5031042;28;20123;-59
2024/02/08 13:02:54;;;;;;;20.30;10.10;;;;;;;;;;5034878;28;20037;-60
2024/02/08 13:05:22;;;;;;;23.90;9.95;;;;;;;;;;5030665;28;20046;-59
2024/02/08 13:07:56;;;;;;;21.23;10.15;;;;;;;;;;5028802;28;20043;-60
2024/02/08 13:10:24;;;;;;;20.05;9.35;;;;;;;;;;5027483;28;20116;-61
2024/02/08 13:12:58;;;;;;;14.45;8.32;;;;;;;;;;5026444;28;20029;-60
2024/02/08 13:15:24;;;;;;;20.35;9.65;;;;;;;;;;5035087;28;20037;-61
2024/02/08 13:17:50;;;;;;;19.23;8.85;;;;;;;;;;5036712;28;20128;-61
2024/02/08 13:20:17;;;;;;;21.27;10.15;;;;;;;;;;5033861;28;20143;-60
2024/02/08 13:22:47;;;;;;;19.23;8.90;;;;;;;;;;5036363;28;20030;-60
2024/02/08 13:25:15;;;;;;;27.30;9.73;;;;;;;;;;5036067;28;20025;-60
2024/02/08 13:27:42;;;;;;;22.10;10.32;;;;;;;;;;5028848;28;20025;-61
2024/02/08 13:30:15;;;;;;;19.35;9.05;;;;;;;;;;5027455;28;20029;-60
2024/02/08 13:32:42;;;;;;;22.92;8.75;;;;;;;;;;5035987;28;20033;-60
2024/02/08 13:35:08;;;;;;;21.48;8.98;;;;;;;;;;5034391;28;20404;-60
2024/02/08 13:37:37;;;;;;;29.83;9.00;;;;;;;;;;5035869;28;20109;-61
2024/02/08 13:40:03;;;;;;;17.45;8.60;;;;;;;;;;5036025;28;20095;-61
2024/02/08 13:42:29;;;;;;;17.67;8.52;;;;;;;;;;5035890;28;20035;-61
2024/02/08 13:44:57;;;;;;;22.67;8.90;;;;;;;;;;5035182;28;20029;-61
2024/02/08 13:47:25;;;;;;;19.55;8.23;;;;;;;;;;5033291;28;20025;-60
2024/02/08 13:49:52;;;;;;;21.15;7.70;;;;;;;;;;5027411;28;20045;-61
2024/02/08 13:52:19;;;;;;;19.40;7.63;;;;;;;;;;5032417;28;20049;-61
2024/02/08 13:54:48;;;;;;;17.25;7.13;;;;;;;;;;5030107;28;20558;-61
2024/02/08 13:57:14;;;;;;;18.27;7.72;;;;;;;;;;5018824;28;20048;-62
2024/02/08 13:59:46;;;;;;;15.50;6.88;;;;;;;;;;5032763;28;20056;-62
2024/02/08 14:02:14;;;;;;;20.67;6.97;;;;;;;;;;5034959;28;20466;-61
2024/02/08 14:04:39;;;;;;;17.88;7.43;;;;;;;;;;5030970;28;20052;-61
2024/02/08 14:07:11;;;;;;;16.58;7.18;;;;;;;;;;5016260;28;20033;-60
2024/02/08 14:09:40;;;;;;;15.07;6.28;;;;;;;;;;5030062;28;20037;-61
2024/02/08 14:12:08;;;;;;;17.35;6.60;;;;;;;;;;5029926;28;20036;-61
2024/02/08 14:14:41;;;;;;;15.15;6.57;;;;;;;;;;5031003;28;20021;-60
2024/02/08 14:17:10;;;;;;;14.75;7.40;;;;;;;;;;5032840;28;20044;-62
2024/02/08 14:19:42;;;;;;;17.73;7.03;;;;;;;;;;5033382;28;20025;-58
2024/02/08 14:22:10;;;;;;;20.15;6.95;;;;;;;;;;5016924;28;20059;-60
2024/02/08 14:24:38;;;;;;;17.40;6.80;;;;;;;;;;5033120;28;20027;-61
2024/02/08 14:27:05;;;;;;;16.52;7.43;;;;;;;;;;5032516;28;20045;-59
2024/02/08 14:29:32;;;;;;;14.48;7.13;;;;;;;;;;5032573;28;20030;-59
2024/02/08 14:31:57;;;;;;;15.35;6.85;;;;;;;;;;5032277;28;20481;-59
2024/02/08 14:34:26;;;;;;;17.10;7.15;;;;;;;;;;5031166;28;20025;-59
2024/02/08 14:36:52;;;;;;;17.40;7.25;;;;;;;;;;5030294;28;20044;-59
2024/02/08 14:39:28;;;;;;;14.82;7.32;;;;;;;;;;5032527;28;20025;-59
2024/02/08 14:41:58;;;;;;;14.02;6.82;;;;;;;;;;5028983;28;20056;-60
2024/02/08 14:44:31;;;;;;;16.85;7.18;;;;;;;;;;5027816;28;20043;-59
2024/02/08 14:46:57;;;;;;;20.73;7.20;;;;;;;;;;5028199;28;20025;-58
2024/02/08 14:49:23;;;;;;;14.18;6.35;;;;;;;;;;5031283;28;20033;-59
2024/02/08 14:51:50;;;;;;;17.13;7.60;;;;;;;;;;5026172;28;20056;-59
2024/02/08 14:54:19;;;;;;;19.17;6.47;;;;;;;;;;5023001;28;20030;-59
2024/02/08 14:57:03;;;;;;;14.07;6.85;;;;;;;;;;5022945;28;21224;-59
2024/02/08 14:59:29;;;;;;;18.55;7.60;;;;;;;;;;5020944;28;20394;-59
2024/02/08 15:02:12;;;;;;;16.30;6.95;;;;;;;;;;5024464;28;20029;-59
2024/02/08 15:04:45;;;;;;;18.00;5.55;;;;;;;;;;5023942;28;20029;-60
2024/02/08 15:07:33;;;;;;;23.45;6.65;;;;;;;;;;5025315;28;20041;-59
2024/02/08 15:09:58;;;;;;;13.25;6.35;;;;;;;;;;5031010;28;20128;-60
2024/02/08 15:14:54;;;;;;;16.33;6.95;;;;;;;;;;5030174;28;20051;-58
2024/02/08 15:17:23;;;;;;;16.63;6.55;;;;;;;;;;5031350;28;20025;-60
2024/02/08 15:19:52;;;;;;;16.80;6.20;;;;;;;;;;5031420;28;20029;-59
2024/02/08 15:25:03;;;;;;;20.30;7.05;;;;;;;;;;5031495;28;20033;-60
2024/02/08 15:27:34;;;;;;;13.95;7.28;;;;;;;;;;5029225;28;20033;-57
2024/02/08 15:30:17;;;;;;;18.55;7.55;;;;;;;;;;5031741;28;20156;-58
2024/02/08 15:33:16;;;;;;;17.65;6.30;;;;;;;;;;5026049;28;20029;-56
2024/02/08 15:35:51;;;;;;;17.45;7.22;;;;;;;;;;5030565;28;20098;-58
2024/02/08 15:41:19;;;;;;;25.38;8.65;;;;;;;;;;5028386;28;20108;-57
2024/02/08 15:43:48;;;;;;;24.48;8.52;;;;;;;;;;5026756;28;20025;-57
2024/02/08 15:46:20;;;;;;;20.95;8.98;;;;;;;;;;5027415;28;20022;-58
2024/02/08 15:48:48;;;;;;;22.73;8.20;;;;;;;;;;5010669;28;20074;-57
2024/02/08 15:51:23;;;;;;;17.80;8.48;;;;;;;;;;5030209;28;20494;-57
2024/02/08 15:53:49;;;;;;;22.05;8.25;;;;;;;;;;5022184;28;20037;-58
2024/02/08 15:56:19;;;;;;;17.67;8.85;;;;;;;;;;5027713;28;20029;-56
2024/02/08 15:58:45;;;;;;;96.90;41.28;;;;;;;;;;5027504;28;20030;-58
2024/02/08 16:01:17;;;;;;;89.07;37.40;;;;;;;;;;5026119;28;20375;-56
2024/02/08 16:03:55;;;;;;;16.55;9.18;;;;;;;;;;5030192;28;20567;-54
2024/02/08 16:06:41;;;;;;;22.38;8.35;;;;;;;;;;5021901;28;20030;-59
2024/02/08 16:09:10;;;;;;;22.15;9.02;;;;;;;;;;5023312;28;20395;-57
2024/02/08 16:11:36;;;;;;;15.63;8.00;;;;;;;;;;5024659;28;20468;-57
2024/02/08 16:14:15;;;;;;;21.10;9.60;;;;;;;;;;5025099;28;20021;-56
2024/02/08 16:16:50;;;;;;;20.40;9.60;;;;;;;;;;5022912;28;20087;-58
2024/02/08 16:19:39;;;;;;;15.98;8.95;;;;;;;;;;5024593;28;20036;-56
2024/02/08 16:22:19;;;;;;;19.33;8.13;;;;;;;;;;5022231;28;20494;-57
2024/02/08 16:24:49;;;;;;;21.35;7.57;;;;;;;;;;5021485;28;20052;-57
2024/02/08 16:27:15;;;;;;;16.23;7.85;;;;;;;;;;5021786;28;20033;-57
2024/02/08 16:29:56;;;;;;;24.25;7.93;;;;;;;;;;5009174;28;20029;-57
2024/02/08 16:32:29;;;;;;;19.35;8.45;;;;;;;;;;5022342;28;20034;-57
2024/02/08 16:35:00;;;;;;;24.25;11.18;;;;;;;;;;5020504;28;20029;-57
2024/02/08 16:37:42;;;;;;;22.90;9.45;;;;;;;;;;5024557;28;20033;-57
2024/02/08 16:40:28;;;;;;;20.48;9.88;;;;;;;;;;5025552;28;20025;-57
2024/02/08 16:42:56;;;;;;;24.73;10.65;;;;;;;;;;5023613;28;20037;-57
2024/02/08 16:45:34;;;;;;;26.17;10.23;;;;;;;;;;5024833;28;20022;-58
2024/02/08 16:48:14;;;;;;;19.90;9.30;;;;;;;;;;5022542;28;20501;-57
2024/02/08 16:50:49;;;;;;;23.70;9.82;;;;;;;;;;5024000;28;20029;-60
2024/02/08 16:53:19;;;;;;;24.27;10.35;;;;;;;;;;5022844;28;20401;-59
2024/02/08 16:55:48;;;;;;;27.98;10.80;;;;;;;;;;5020550;28;20118;-59
2024/02/08 16:58:28;;;;;;;25.38;10.65;;;;;;;;;;5023708;28;20379;-60
2024/02/08 17:01:02;;;;;;;28.60;9.95;;;;;;;;;;5020626;28;20104;-59
2024/02/08 17:03:50;;;;;;;23.02;10.50;;;;;;;;;;5022297;28;20430;-59
2024/02/08 17:06:16;;;;;;;25.48;10.70;;;;;;;;;;5022034;28;20034;-59
2024/02/08 17:09:15;;;;;;;21.13;10.45;;;;;;;;;;5022044;28;20097;-60
2024/02/08 17:11:45;;;;;;;24.00;9.63;;;;;;;;;;5023583;28;20041;-58
2024/02/08 17:15:15;;;;;;;26.45;9.65;;;;;;;;;;5027060;28;20077;-60
2024/02/08 17:17:13;;;;;;;30.17;10.85;;;;;;;;;;5014988;28;20045;-61
2024/02/08 17:19:51;;;;;;;23.95;10.70;;;;;;;;;;5030897;28;20033;-60